Time;durP1;ratioP1;P1;durP2;ratioP2;P2;SDS_P1;SDS_P2;PMS_P1;PMS_P2;Temp;Humidity;BMP_temperature;BMP_pressure;BME280_temperature;BME280_humidity;BME280_pressure;Samples;Min_cycle;Max_cycle;Signal;HPM_P1;HPM_P2
2021/04/12 00:01:09;;;;;;;11.43;8.53;;;;;;;10.68;48.43;95497.00;5038844;28;20451;-79
2021/04/12 00:03:45;;;;;;;14.40;6.77;;;;;;;10.63;48.44;95483.41;5073537;28;20458;-79
2021/04/12 00:06:18;;;;;;;12.83;6.93;;;;;;;10.66;49.19;95488.41;5073361;28;20823;-79
2021/04/12 00:08:50;;;;;;;12.20;6.97;;;;;;;10.68;49.33;95481.25;5073565;28;20491;-79
2021/04/12 00:11:27;;;;;;;12.00;8.37;;;;;;;10.71;49.85;95481.06;5073437;28;20466;-79
2021/04/12 00:13:58;;;;;;;10.80;6.20;;;;;;;10.75;49.04;95469.38;5073309;28;20443;-79
2021/04/12 00:16:30;;;;;;;9.03;6.83;;;;;;;10.77;48.46;95470.09;5073280;28;20917;-79
2021/04/12 00:19:00;;;;;;;11.70;6.37;;;;;;;10.71;49.09;95457.44;5073092;28;20458;-79
2021/04/12 00:21:33;;;;;;;9.30;6.87;;;;;;;10.81;48.40;95469.72;5073449;28;20451;-79
2021/04/12 00:24:04;;;;;;;10.23;6.93;;;;;;;10.82;48.46;95473.19;5073248;28;20442;-79
2021/04/12 00:26:37;;;;;;;10.80;7.97;;;;;;;10.81;49.38;95469.72;5073324;28;20499;-79
2021/04/12 00:29:10;;;;;;;13.33;8.87;;;;;;;10.77;49.27;95468.31;5073191;28;20843;-79
2021/04/12 00:31:41;;;;;;;12.43;8.77;;;;;;;10.75;49.34;95472.00;5072976;28;20450;-79
2021/04/12 00:34:16;;;;;;;13.80;8.17;;;;;;;10.73;49.37;95473.91;5073368;28;20504;-79
2021/04/12 00:36:48;;;;;;;16.67;9.23;;;;;;;10.71;49.07;95470.56;5075747;28;20469;-79
2021/04/12 00:39:20;;;;;;;8.97;7.47;;;;;;;10.64;49.40;95464.91;5042767;28;20446;-79
2021/04/12 00:42:12;;;;;;;13.10;7.70;;;;;;;10.59;49.74;95466.22;5076859;28;20447;-79
2021/04/12 00:45:15;;;;;;;13.33;8.83;;;;;;;10.52;50.28;95474.56;5077534;28;20485;-79
2021/04/12 00:47:55;;;;;;;12.07;8.70;;;;;;;10.43;50.75;95456.91;5014801;28;20449;-79
2021/04/12 00:50:34;;;;;;;11.87;8.73;;;;;;;10.40;51.61;95456.25;4966193;28;20448;-79
2021/04/12 00:53:41;;;;;;;14.83;9.37;;;;;;;10.39;51.54;95463.31;5014562;28;20453;-79
2021/04/12 00:56:13;;;;;;;10.97;7.60;;;;;;;10.39;51.92;95459.84;4956484;29;20961;-79
2021/04/12 00:58:49;;;;;;;17.10;9.87;;;;;;;10.33;51.56;95461.16;4956198;29;20447;-79
2021/04/12 01:01:31;;;;;;;17.97;9.30;;;;;;;10.34;52.44;95462.81;4956537;29;20506;-79
2021/04/12 01:04:10;;;;;;;16.47;10.20;;;;;;;10.36;53.04;95471.41;4956259;29;20446;-79
2021/04/12 01:06:57;;;;;;;21.43;9.90;;;;;;;10.37;52.91;95467.81;4956050;29;20448;-79
2021/04/12 01:10:02;;;;;;;14.53;8.23;;;;;;;10.26;52.68;95462.56;4956250;29;20486;-79
2021/04/12 01:13:08;;;;;;;11.70;6.70;;;;;;;10.21;52.07;95464.69;4955988;29;20450;-79
2021/04/12 01:16:06;;;;;;;7.40;5.73;;;;;;;10.24;51.60;95456.59;4880047;29;20451;-79
2021/04/12 01:18:45;;;;;;;9.07;6.17;;;;;;;10.28;51.41;95467.69;4842956;29;20555;-79
2021/04/12 01:21:46;;;;;;;6.60;5.47;;;;;;;10.33;50.74;95460.31;4843212;29;20509;-79
2021/04/12 01:24:48;;;;;;;8.50;5.50;;;;;;;10.39;51.04;95452.81;4825043;29;20469;-79
2021/04/12 01:27:46;;;;;;;8.20;5.57;;;;;;;10.43;50.53;95456.06;4788549;30;20470;-79
2021/04/12 01:30:43;;;;;;;7.70;5.77;;;;;;;10.46;50.18;95446.16;4788614;30;20461;-79
2021/04/12 01:33:38;;;;;;;7.40;5.60;;;;;;;10.52;50.43;95452.75;4818735;29;20455;-79
2021/04/12 01:36:22;;;;;;;8.80;6.60;;;;;;;10.57;50.39;95452.38;4861479;29;20965;-79
2021/04/12 01:38:57;;;;;;;9.17;6.83;;;;;;;10.55;49.99;95450.72;4861184;29;20457;-79
2021/04/12 01:41:40;;;;;;;12.70;7.00;;;;;;;10.61;50.52;95453.81;4861202;29;20457;-80
2021/04/12 01:44:20;;;;;;;7.67;5.00;;;;;;;10.64;49.64;95454.41;4861461;29;20521;-79
2021/04/12 01:46:59;;;;;;;8.20;5.33;;;;;;;10.67;50.06;95453.34;4861023;29;20492;-79
2021/04/12 01:49:42;;;;;;;8.23;6.07;;;;;;;10.68;49.84;95455.03;4887560;29;20493;-79
2021/04/12 01:52:34;;;;;;;8.97;6.07;;;;;;;10.65;50.15;95450.84;4917196;29;20489;-79
2021/04/12 01:55:15;;;;;;;5.80;5.30;;;;;;;10.70;49.66;95453.97;4904609;28;20447;-79
2021/04/12 01:58:24;;;;;;;10.60;6.03;;;;;;;10.69;49.82;95452.28;4974693;28;20482;-79
2021/04/12 02:01:02;;;;;;;6.13;5.60;;;;;;;10.65;50.15;95457.88;4981922;28;20924;-79
2021/04/12 02:03:43;;;;;;;7.93;5.70;;;;;;;10.57;50.67;95453.22;5011590;28;20451;-79
2021/04/12 02:06:34;;;;;;;8.83;7.20;;;;;;;10.40;51.32;95454.47;5075545;28;20459;-79
2021/04/12 02:09:13;;;;;;;7.63;6.33;;;;;;;10.31;52.37;95452.56;5075645;28;20487;-79
2021/04/12 02:11:55;;;;;;;10.20;8.33;;;;;;;10.28;52.56;95455.41;5056481;28;20449;-79
2021/04/12 02:14:44;;;;;;;11.77;6.40;;;;;;;10.36;52.20;95452.19;5076026;28;20518;-79
2021/04/12 02:17:19;;;;;;;13.10;8.90;;;;;;;10.42;51.76;95457.00;5075287;28;20453;-79
2021/04/12 02:20:04;;;;;;;8.93;8.03;;;;;;;10.47;51.28;95449.63;5074975;28;20449;-79
2021/04/12 02:23:03;;;;;;;8.70;7.00;;;;;;;10.50;51.27;95444.16;5075045;28;20443;-79
2021/04/12 02:25:42;;;;;;;14.70;7.80;;;;;;;10.52;52.03;95445.69;5075423;28;20809;-79
2021/04/12 02:28:24;;;;;;;10.70;6.23;;;;;;;10.50;51.31;95449.41;5075437;28;20497;-79
2021/04/12 02:30:59;;;;;;;7.40;5.80;;;;;;;10.53;52.01;95443.91;5074832;28;20446;-79
2021/04/12 02:33:32;;;;;;;7.47;5.60;;;;;;;10.55;51.28;95445.47;5056151;28;20451;-79
2021/04/12 02:36:09;;;;;;;9.30;5.80;;;;;;;10.58;52.27;95438.31;5075014;28;20478;-79
2021/04/12 02:38:46;;;;;;;6.57;5.40;;;;;;;10.65;51.13;95440.34;5041064;28;20557;-79
2021/04/12 02:41:30;;;;;;;11.27;6.20;;;;;;;10.65;51.53;95437.72;5074778;28;20449;-79
2021/04/12 02:44:38;;;;;;;7.23;5.57;;;;;;;10.75;50.94;95437.88;5074564;28;20473;-79
2021/04/12 02:47:37;;;;;;;6.37;4.77;;;;;;;10.78;51.52;95429.75;5012645;28;20556;-80
2021/04/12 02:50:19;;;;;;;5.27;4.63;;;;;;;10.74;51.05;95428.31;4935297;29;20520;-79
2021/04/12 02:53:01;;;;;;;6.67;5.10;;;;;;;10.80;51.30;95425.22;4934913;29;21066;-79
2021/04/12 02:55:58;;;;;;;6.10;5.33;;;;;;;10.84;51.53;95432.75;4934852;29;20471;-79
2021/04/12 02:58:49;;;;;;;8.73;5.40;;;;;;;10.88;51.16;95424.63;4935075;29;20628;-79
2021/04/12 03:01:36;;;;;;;9.90;5.00;;;;;;;10.86;51.69;95425.56;4932333;29;20463;-78
2021/04/12 03:04:18;;;;;;;12.70;7.70;;;;;;;10.91;51.12;95430.47;4889751;29;20461;-78
2021/04/12 03:07:16;;;;;;;30.57;13.30;;;;;;;10.94;50.97;95429.41;4934671;29;20962;-78
2021/04/12 03:10:05;;;;;;;16.40;8.70;;;;;;;10.97;50.46;95437.88;4934743;29;20501;-78
2021/04/12 03:13:16;;;;;;;15.63;8.13;;;;;;;10.97;51.13;95429.97;4934724;29;20961;-78
2021/04/12 03:16:00;;;;;;;11.43;5.70;;;;;;;10.95;50.53;95429.28;4934594;29;20464;-78
2021/04/12 03:19:06;;;;;;;7.03;5.90;;;;;;;10.96;50.19;95430.09;4934541;29;20487;-78
2021/04/12 03:22:04;;;;;;;7.37;5.30;;;;;;;10.96;51.26;95428.31;4895773;29;20469;-78
2021/04/12 03:24:36;;;;;;;13.57;5.47;;;;;;;10.92;51.22;95423.44;4884226;29;20466;-78
2021/04/12 03:27:13;;;;;;;5.77;4.47;;;;;;;10.95;51.26;95425.81;4945962;28;20439;-79
2021/04/12 03:29:50;;;;;;;8.03;5.67;;;;;;;10.85;51.11;95426.53;4992151;28;20491;-78
2021/04/12 03:32:47;;;;;;;14.57;6.30;;;;;;;10.88;51.74;95428.09;4992083;28;20454;-78
2021/04/12 03:35:19;;;;;;;5.40;4.90;;;;;;;10.89;51.02;95426.28;4992009;28;20450;-78
2021/04/12 03:37:56;;;;;;;8.10;5.90;;;;;;;10.89;51.44;95431.53;4991995;28;21237;-78
2021/04/12 03:40:27;;;;;;;7.57;5.97;;;;;;;10.87;51.24;95429.03;4959690;28;20972;-78
2021/04/12 03:43:27;;;;;;;6.30;5.70;;;;;;;10.86;51.94;95435.25;4991861;28;20443;-78
2021/04/12 03:46:32;;;;;;;6.90;5.57;;;;;;;10.78;51.33;95427.97;4992072;28;20454;-78
2021/04/12 03:49:27;;;;;;;11.00;5.00;;;;;;;10.80;51.86;95433.09;4934291;29;20536;-78
2021/04/12 03:52:19;;;;;;;5.93;5.37;;;;;;;10.82;51.90;95428.56;4934152;29;20450;-78
2021/04/12 03:55:03;;;;;;;7.50;6.80;;;;;;;10.79;52.55;95439.31;4934000;29;20493;-78
2021/04/12 03:57:55;;;;;;;10.60;6.87;;;;;;;10.77;52.72;95428.09;4943622;28;21039;-78
2021/04/12 04:00:50;;;;;;;12.13;5.60;;;;;;;10.77;52.12;95428.91;5014691;28;20987;-78
2021/04/12 04:03:53;;;;;;;8.70;6.00;;;;;;;10.79;52.76;95427.00;5031020;28;20467;-80
2021/04/12 04:06:48;;;;;;;16.63;5.47;;;;;;;10.80;52.30;95427.84;5030619;28;20448;-78
2021/04/12 04:09:35;;;;;;;6.60;5.97;;;;;;;10.76;52.16;95423.78;4952197;29;20550;-79
2021/04/12 04:12:32;;;;;;;13.23;6.30;;;;;;;10.78;52.55;95429.75;4951799;28;20452;-78
2021/04/12 04:15:28;;;;;;;10.63;6.03;;;;;;;10.74;52.48;95417.81;4938061;29;20455;-78
2021/04/12 04:18:16;;;;;;;11.60;6.47;;;;;;;10.76;52.56;95413.28;4953853;29;20792;-78
2021/04/12 04:21:03;;;;;;;8.80;6.77;;;;;;;10.74;52.79;95417.81;4952074;29;20479;-79
2021/04/12 04:24:01;;;;;;;8.90;6.87;;;;;;;10.73;52.81;95418.78;4952373;28;20456;-79
2021/04/12 04:27:04;;;;;;;7.10;5.73;;;;;;;10.75;52.78;95424.75;4939098;29;20964;-79
2021/04/12 04:29:43;;;;;;;11.27;7.30;;;;;;;10.75;53.15;95420.34;4894960;29;20566;-79
2021/04/12 04:32:43;;;;;;;8.53;7.40;;;;;;;10.75;53.54;95427.38;4895026;29;20447;-78
2021/04/12 04:35:36;;;;;;;9.60;8.00;;;;;;;10.74;53.83;95423.06;4895359;29;20447;-78
2021/04/12 04:38:27;;;;;;;9.20;5.53;;;;;;;10.72;53.87;95415.31;4839530;29;20462;-78
2021/04/12 04:41:04;;;;;;;12.90;6.80;;;;;;;10.79;52.86;95415.69;4840100;29;20465;-78
2021/04/12 04:43:59;;;;;;;8.37;6.10;;;;;;;10.76;54.06;95422.00;4825313;29;20477;-78
2021/04/12 04:46:39;;;;;;;9.43;6.70;;;;;;;10.76;53.18;95431.66;4873095;29;20454;-79
2021/04/12 04:49:29;;;;;;;10.33;6.63;;;;;;;10.74;53.77;95429.16;4895895;29;20499;-79
2021/04/12 04:52:42;;;;;;;13.70;8.00;;;;;;;10.73;53.82;95424.88;4895554;29;20450;-79
2021/04/12 04:55:25;;;;;;;17.13;10.27;;;;;;;10.71;53.72;95415.44;4858274;29;20456;-79
2021/04/12 04:58:17;;;;;;;24.47;12.67;;;;;;;10.70;54.40;95417.22;4844155;29;20847;-79
2021/04/12 05:00:57;;;;;;;17.17;8.60;;;;;;;10.72;53.65;95417.13;4858167;29;20975;-79
2021/04/12 05:04:02;;;;;;;10.83;7.13;;;;;;;10.71;54.29;95418.91;4876739;29;20470;-79
2021/04/12 05:06:49;;;;;;;13.73;7.30;;;;;;;10.74;54.47;95418.66;4845673;29;20897;-79
2021/04/12 05:09:27;;;;;;;19.13;8.77;;;;;;;10.76;54.10;95421.16;4876796;29;20496;-79
2021/04/12 05:12:19;;;;;;;11.63;9.27;;;;;;;10.76;54.72;95421.16;4876662;29;20467;-79
2021/04/12 05:14:59;;;;;;;9.07;7.13;;;;;;;10.78;54.35;95432.38;4887621;29;20465;-79
2021/04/12 05:17:49;;;;;;;8.90;6.60;;;;;;;10.78;54.50;95421.88;4914176;29;20510;-79
2021/04/12 05:20:39;;;;;;;10.20;6.93;;;;;;;10.83;54.58;95432.84;4914214;29;20447;-79
2021/04/12 05:23:20;;;;;;;11.20;8.17;;;;;;;10.86;54.68;95437.88;4917114;29;20451;-78
2021/04/12 05:26:20;;;;;;;17.23;8.40;;;;;;;10.84;54.40;95431.91;4917649;29;20464;-79
2021/04/12 05:29:09;;;;;;;16.00;8.33;;;;;;;10.84;54.93;95434.53;4897114;29;20485;-79
2021/04/12 05:32:07;;;;;;;16.93;8.50;;;;;;;10.86;54.22;95430.81;4980641;28;20449;-79
2021/04/12 05:34:50;;;;;;;12.00;6.90;;;;;;;10.90;54.41;95431.44;5013879;28;20445;-78
2021/04/12 05:37:46;;;;;;;18.80;7.83;;;;;;;10.93;54.88;95428.56;5013408;28;20483;-78
2021/04/12 05:40:57;;;;;;;22.70;7.20;;;;;;;10.97;54.63;95422.09;5012930;28;20462;-78
2021/04/12 05:43:57;;;;;;;10.80;6.20;;;;;;;10.99;54.21;95419.41;5007033;28;20532;-78
2021/04/12 05:47:11;;;;;;;10.93;6.90;;;;;;;11.06;54.45;95421.41;5015838;28;20483;-80
2021/04/12 05:50:13;;;;;;;9.13;7.00;;;;;;;11.14;53.25;95415.56;4925272;28;20523;-78
2021/04/12 05:53:07;;;;;;;14.17;6.63;;;;;;;11.25;53.51;95412.06;4974103;28;20456;-78
2021/04/12 05:55:55;;;;;;;13.90;9.07;;;;;;;11.33;53.82;95407.06;4973717;28;20467;-78
2021/04/12 05:58:41;;;;;;;10.90;7.43;;;;;;;11.42;52.64;95414.19;4973700;28;20448;-78
2021/04/12 06:01:25;;;;;;;18.43;7.83;;;;;;;11.45;52.90;95414.78;4973573;28;20519;-78
2021/04/12 06:04:07;;;;;;;7.90;6.93;;;;;;;11.44;52.45;95413.13;4973560;28;20448;-78
2021/04/12 06:07:05;;;;;;;8.93;7.07;;;;;;;11.56;53.55;95413.09;4974306;28;20456;-79
2021/04/12 06:10:04;;;;;;;18.63;12.00;;;;;;;11.60;52.49;95418.00;4974312;28;20495;-79
2021/04/12 06:12:54;;;;;;;12.93;10.87;;;;;;;11.68;51.73;95427.88;4974092;28;20456;-79
2021/04/12 06:16:04;;;;;;;12.23;8.77;;;;;;;11.74;52.37;95422.13;5032880;28;20905;-79
2021/04/12 06:19:06;;;;;;;12.87;8.70;;;;;;;11.80;51.84;95419.03;5032947;28;20451;-78
2021/04/12 06:22:15;;;;;;;18.73;8.57;;;;;;;11.87;50.58;95416.75;5032884;28;20882;-79
2021/04/12 06:25:05;;;;;;;15.37;8.20;;;;;;;11.93;50.83;95413.63;4988509;28;20456;-79
2021/04/12 06:28:03;;;;;;;18.30;7.90;;;;;;;11.98;51.88;95412.28;5012827;28;21010;-78
2021/04/12 06:31:05;;;;;;;13.83;8.50;;;;;;;12.08;50.32;95417.63;5012733;28;20482;-79
2021/04/12 06:34:07;;;;;;;8.90;7.70;;;;;;;12.12;49.24;95413.75;4934689;29;20466;-78
2021/04/12 06:36:53;;;;;;;17.10;9.63;;;;;;;12.03;48.40;95411.91;4935381;29;20466;-79
2021/04/12 06:39:52;;;;;;;19.83;8.57;;;;;;;12.09;48.48;95406.97;4935058;29;20457;-79
2021/04/12 06:43:07;;;;;;;13.87;8.93;;;;;;;12.16;49.57;95425.72;4935339;29;20450;-79
2021/04/12 06:46:09;;;;;;;13.83;8.97;;;;;;;12.22;49.43;95419.97;4903508;29;20510;-79
2021/04/12 06:49:02;;;;;;;24.87;12.27;;;;;;;12.22;49.49;95421.75;4934748;29;20486;-79
2021/04/12 06:52:11;;;;;;;12.77;10.27;;;;;;;12.27;48.39;95423.03;4915727;29;20447;-79
2021/04/12 06:55:10;;;;;;;15.23;10.20;;;;;;;12.34;48.74;95425.97;4915692;29;20460;-80
2021/04/12 06:58:20;;;;;;;19.60;11.70;;;;;;;12.39;48.93;95426.44;4859962;29;20458;-80
2021/04/12 07:01:21;;;;;;;34.10;9.77;;;;;;;12.31;48.19;95424.44;4884744;29;20448;-79
2021/04/12 07:04:24;;;;;;;14.63;10.87;;;;;;;12.19;48.55;95425.47;4915861;29;20487;-80
2021/04/12 07:07:29;;;;;;;23.00;11.20;;;;;;;12.18;51.72;95422.97;4915576;29;20450;-79
2021/04/12 07:10:11;;;;;;;19.93;12.70;;;;;;;12.24;54.65;95422.47;4937920;28;20899;-80
2021/04/12 07:13:08;;;;;;;24.87;14.23;;;;;;;12.37;52.96;95412.56;4972952;28;20453;-79
2021/04/12 07:16:10;;;;;;;17.30;12.63;;;;;;;12.49;52.10;95411.56;4970845;28;20509;-78
2021/04/12 07:19:21;;;;;;;27.90;11.33;;;;;;;12.67;52.85;95420.53;4976799;28;20445;-80
2021/04/12 07:22:16;;;;;;;16.47;11.33;;;;;;;13.24;50.42;95413.88;4953475;29;20457;-78
2021/04/12 07:25:33;;;;;;;17.47;11.43;;;;;;;13.75;49.15;95412.09;4965192;28;20461;-78
2021/04/12 07:28:30;;;;;;;15.47;9.13;;;;;;;14.29;47.04;95408.91;4907270;29;20948;-80
2021/04/12 07:31:33;;;;;;;17.27;11.20;;;;;;;15.01;42.88;95410.19;4877730;29;20461;-77
2021/04/12 07:34:16;;;;;;;14.83;10.03;;;;;;;15.28;43.21;95404.94;4880067;29;20460;-78
2021/04/12 07:37:24;;;;;;;19.23;10.63;;;;;;;15.92;42.51;95397.94;4912894;29;21317;-78
2021/04/12 07:40:34;;;;;;;23.97;12.57;;;;;;;16.43;41.57;95411.31;4839243;29;20460;-79
2021/04/12 07:43:38;;;;;;;22.40;10.03;;;;;;;16.75;39.55;95407.25;4840437;29;20948;-78
2021/04/12 07:46:55;;;;;;;14.97;9.63;;;;;;;17.11;38.31;95405.38;4839545;29;20517;-78
2021/04/12 07:50:18;;;;;;;19.87;10.20;;;;;;;17.43;38.64;95403.84;4840285;29;20509;-78
2021/04/12 07:53:26;;;;;;;13.90;10.30;;;;;;;17.49;37.84;95397.91;4768027;30;20812;-78
2021/04/12 07:56:28;;;;;;;19.90;12.10;;;;;;;17.19;38.57;95386.00;4731244;30;20478;-78
2021/04/12 07:59:29;;;;;;;15.90;9.10;;;;;;;17.21;37.92;95384.84;4689188;30;20473;-78
2021/04/12 08:02:32;;;;;;;11.47;9.33;;;;;;;17.25;37.89;95378.22;4715298;30;20543;-78
2021/04/12 08:05:47;;;;;;;13.20;9.20;;;;;;;17.45;36.34;95373.53;4726520;30;20967;-78
2021/04/12 08:09:05;;;;;;;14.67;9.30;;;;;;;17.83;37.41;95376.66;4765506;30;20547;-78
2021/04/12 08:12:08;;;;;;;15.30;8.90;;;;;;;17.64;37.43;95372.44;4768034;30;20464;-79
2021/04/12 08:15:07;;;;;;;8.93;7.50;;;;;;;17.69;36.89;95369.31;4750140;30;20484;-79
2021/04/12 08:17:57;;;;;;;28.70;9.00;;;;;;;17.68;37.48;95363.19;4787201;29;20489;-78
2021/04/12 08:21:04;;;;;;;8.60;7.37;;;;;;;17.85;36.66;95362.22;4803607;29;20457;-79
2021/04/12 08:24:00;;;;;;;8.83;8.00;;;;;;;17.80;35.06;95355.72;4804061;29;20465;-78
2021/04/12 08:27:03;;;;;;;9.50;6.70;;;;;;;18.00;35.48;95351.78;4812624;29;20454;-78
2021/04/12 08:30:08;;;;;;;15.47;6.70;;;;;;;18.04;36.27;95349.63;4821809;29;20498;-77
2021/04/12 08:33:13;;;;;;;8.27;5.90;;;;;;;18.27;36.27;95346.16;4846547;29;20446;-77
2021/04/12 08:36:09;;;;;;;16.30;7.23;;;;;;;18.48;35.69;95342.16;4881645;29;20454;-78
2021/04/12 08:39:12;;;;;;;7.73;6.77;;;;;;;18.51;35.36;95344.50;4947072;28;20963;-78
2021/04/12 08:41:51;;;;;;;11.30;6.30;;;;;;;18.39;34.81;95333.38;4939639;29;20452;-79
2021/04/12 08:44:42;;;;;;;16.20;7.40;;;;;;;18.61;35.41;95334.53;4939111;28;20473;-79
2021/04/12 08:47:33;;;;;;;12.77;6.87;;;;;;;18.68;35.09;95330.22;4972147;28;20456;-79
2021/04/12 08:50:16;;;;;;;9.93;6.97;;;;;;;18.60;34.98;95329.38;4971945;28;20815;-78
2021/04/12 08:53:17;;;;;;;8.20;7.00;;;;;;;18.70;35.47;95330.03;5025252;28;20529;-78
2021/04/12 08:55:54;;;;;;;11.63;7.60;;;;;;;18.82;35.20;95320.72;5007118;28;20441;-77
2021/04/12 08:59:00;;;;;;;17.10;8.30;;;;;;;18.95;35.22;95331.66;5013627;28;20450;-77
2021/04/12 09:02:08;;;;;;;13.83;7.13;;;;;;;19.04;34.97;95319.16;5013983;28;20455;-79
2021/04/12 09:05:25;;;;;;;24.60;7.53;;;;;;;19.11;34.30;95318.31;5014501;28;20837;-77
2021/04/12 09:08:14;;;;;;;64.27;12.60;;;;;;;18.60;35.12;95316.09;5014040;28;20545;-78
2021/04/12 09:11:28;;;;;;;8.53;6.70;;;;;;;18.23;36.19;95306.81;5014554;28;20487;-78
2021/04/12 09:14:41;;;;;;;11.80;7.10;;;;;;;18.54;36.24;95296.31;4880045;29;20458;-78
2021/04/12 09:17:30;;;;;;;12.33;6.83;;;;;;;18.72;35.77;95299.63;4880093;29;20460;-80
2021/04/12 09:20:31;;;;;;;8.10;6.40;;;;;;;18.78;35.92;95300.75;4933458;29;20847;-79
2021/04/12 09:23:18;;;;;;;19.43;7.37;;;;;;;18.40;36.83;95292.50;4902102;29;20465;-78
2021/04/12 09:26:10;;;;;;;13.87;6.60;;;;;;;18.32;36.88;95281.91;4917425;29;20487;-79
2021/04/12 09:29:27;;;;;;;11.40;6.47;;;;;;;18.54;36.39;95281.22;4917187;29;20462;-79
2021/04/12 09:32:28;;;;;;;22.33;6.57;;;;;;;18.74;37.09;95275.53;4917055;29;20823;-79
2021/04/12 09:35:33;;;;;;;8.67;6.53;;;;;;;18.94;36.35;95276.78;4917297;29;20965;-79
2021/04/12 09:38:35;;;;;;;10.40;6.20;;;;;;;19.05;35.20;95279.06;4861130;29;20466;-79
2021/04/12 09:41:47;;;;;;;11.10;6.00;;;;;;;19.02;35.66;95270.63;4860399;29;20467;-79
2021/04/12 09:44:39;;;;;;;10.13;6.50;;;;;;;18.99;35.64;95262.97;4881663;29;20488;-79
2021/04/12 09:47:51;;;;;;;15.27;6.63;;;;;;;19.07;35.87;95262.94;4869883;29;20448;-79
2021/04/12 09:50:51;;;;;;;11.50;6.17;;;;;;;18.99;36.10;95247.84;4922521;29;20488;-79
2021/04/12 09:54:05;;;;;;;10.30;7.43;;;;;;;19.16;35.86;95248.63;4949301;29;20446;-79
2021/04/12 09:57:10;;;;;;;17.50;6.70;;;;;;;18.85;36.46;95240.59;4954522;29;20823;-79
2021/04/12 09:59:47;;;;;;;14.20;7.87;;;;;;;18.96;36.21;95237.56;4977621;28;20456;-78
2021/04/12 10:02:55;;;;;;;14.73;8.40;;;;;;;19.08;36.51;95236.19;4993647;28;20445;-78
2021/04/12 10:05:51;;;;;;;10.83;7.10;;;;;;;19.09;35.71;95240.50;4955163;29;20447;-78
2021/04/12 10:08:27;;;;;;;26.47;8.50;;;;;;;19.14;35.69;95238.16;4822709;29;20463;-78
2021/04/12 10:11:00;;;;;;;12.50;7.33;;;;;;;19.16;35.74;95233.47;4823572;29;20495;-78
2021/04/12 10:13:41;;;;;;;10.07;7.53;;;;;;;18.64;35.55;95233.19;4859325;29;20457;-79
2021/04/12 10:16:15;;;;;;;16.13;7.57;;;;;;;18.69;36.38;95232.69;4915281;29;20953;-78
2021/04/12 10:18:45;;;;;;;16.80;7.40;;;;;;;18.77;37.00;95232.63;4915978;29;20799;-79
2021/04/12 10:21:22;;;;;;;17.30;7.57;;;;;;;18.21;36.52;95213.16;4918460;29;20516;-78
2021/04/12 10:23:52;;;;;;;12.13;8.03;;;;;;;18.42;37.31;95216.09;4935288;29;20450;-79
2021/04/12 10:26:25;;;;;;;9.37;7.00;;;;;;;18.53;36.44;95215.75;4930355;29;20816;-79
2021/04/12 10:29:02;;;;;;;7.83;7.00;;;;;;;18.60;36.38;95217.72;4912092;29;20493;-79
2021/04/12 10:31:34;;;;;;;11.40;6.30;;;;;;;18.67;35.42;95216.91;4931056;29;21015;-79
2021/04/12 10:34:24;;;;;;;20.33;7.03;;;;;;;18.77;34.96;95211.38;4897264;29;20578;-79
2021/04/12 10:37:04;;;;;;;12.10;7.87;;;;;;;18.60;34.67;95209.75;4823401;29;20483;-79
2021/04/12 10:39:37;;;;;;;10.90;7.50;;;;;;;18.72;34.68;95200.44;4834260;29;20962;-79
2021/04/12 10:42:21;;;;;;;19.73;8.33;;;;;;;18.88;34.70;95201.19;4841013;29;20475;-79
2021/04/12 10:44:58;;;;;;;75.40;24.07;;;;;;;19.10;35.21;95201.44;4871085;28;20489;-77
2021/04/12 10:47:31;;;;;;;31.80;11.70;;;;;;;19.30;34.63;95193.81;4977719;28;20455;-77
2021/04/12 10:50:05;;;;;;;43.70;14.20;;;;;;;19.57;36.18;95197.81;4992083;28;20499;-78
2021/04/12 10:52:56;;;;;;;20.37;7.73;;;;;;;19.76;34.63;95192.84;4984638;28;20451;-78
2021/04/12 10:55:27;;;;;;;14.07;8.23;;;;;;;19.94;35.36;95189.84;4995508;28;20444;-78
2021/04/12 10:58:15;;;;;;;10.20;7.17;;;;;;;19.83;34.62;95187.63;5012308;28;20437;-78
2021/04/12 11:00:49;;;;;;;20.93;8.00;;;;;;;19.90;34.70;95183.25;4983443;28;20895;-78
2021/04/12 11:03:41;;;;;;;10.70;7.50;;;;;;;19.83;34.76;95176.16;4992665;28;20880;-79
2021/04/12 11:06:26;;;;;;;12.80;7.90;;;;;;;19.62;35.43;95168.81;4992548;28;20452;-77
2021/04/12 11:09:03;;;;;;;21.23;7.73;;;;;;;19.64;34.58;95164.97;4963023;28;20544;-78
2021/04/12 11:11:35;;;;;;;16.77;8.73;;;;;;;19.68;34.85;95162.81;4921617;29;20440;-78
2021/04/12 11:14:12;;;;;;;17.73;8.40;;;;;;;19.69;34.79;95161.81;5016768;28;20550;-78
2021/04/12 11:16:45;;;;;;;13.80;9.10;;;;;;;19.66;34.87;95160.34;5051833;28;20451;-78
2021/04/12 11:19:22;;;;;;;21.87;9.40;;;;;;;19.62;33.78;95159.00;5051293;28;20956;-78
2021/04/12 11:22:10;;;;;;;16.60;9.50;;;;;;;19.59;34.83;95154.03;5051486;28;20443;-78
2021/04/12 11:24:44;;;;;;;14.13;9.50;;;;;;;19.62;34.58;95152.84;4954094;28;20517;-79
2021/04/12 11:27:51;;;;;;;13.70;10.30;;;;;;;19.73;34.36;95147.94;4960153;28;20458;-78
2021/04/12 11:30:24;;;;;;;17.10;8.53;;;;;;;19.84;34.90;95141.34;4953135;29;20483;-78
2021/04/12 11:33:07;;;;;;;20.37;10.90;;;;;;;19.88;33.58;95139.16;4953345;28;20488;-79
2021/04/12 11:35:41;;;;;;;16.83;10.10;;;;;;;19.95;34.20;95127.63;4952119;29;20444;-79
2021/04/12 11:38:12;;;;;;;18.30;10.63;;;;;;;20.09;34.06;95125.97;4952082;29;20494;-79
2021/04/12 11:40:50;;;;;;;17.67;10.80;;;;;;;20.22;34.60;95127.97;4968178;28;20448;-79
2021/04/12 11:43:23;;;;;;;22.20;10.43;;;;;;;20.32;34.49;95117.88;4971165;28;20560;-79
2021/04/12 11:46:00;;;;;;;17.20;9.93;;;;;;;20.45;34.26;95112.75;4977838;28;21036;-79
2021/04/12 11:48:34;;;;;;;15.40;10.30;;;;;;;20.53;33.67;95109.16;4979449;28;20490;-78
2021/04/12 11:51:05;;;;;;;19.97;10.30;;;;;;;20.63;34.66;95107.88;4976555;28;20518;-78
2021/04/12 11:53:49;;;;;;;12.67;7.80;;;;;;;20.64;33.24;95103.34;4984381;28;20457;-78
2021/04/12 11:56:30;;;;;;;10.57;7.63;;;;;;;20.63;33.20;95099.03;4972886;28;20455;-79
2021/04/12 11:59:03;;;;;;;24.73;9.50;;;;;;;20.68;33.70;95096.63;4972069;28;20445;-79
2021/04/12 12:01:39;;;;;;;14.13;6.77;;;;;;;20.73;33.17;95096.91;5009451;28;20445;-79
2021/04/12 12:04:15;;;;;;;11.30;5.70;;;;;;;20.73;33.39;95092.38;5060548;28;20472;-79
2021/04/12 12:06:52;;;;;;;12.43;5.73;;;;;;;20.77;32.34;95086.69;5052762;28;20459;-78
2021/04/12 12:09:35;;;;;;;8.00;6.07;;;;;;;20.77;32.94;95090.16;5052728;28;20537;-78
2021/04/12 12:12:12;;;;;;;12.30;6.57;;;;;;;20.77;33.02;95079.50;5064614;28;20534;-78
2021/04/12 12:14:43;;;;;;;11.90;5.77;;;;;;;20.78;32.79;95085.66;5064688;28;20502;-79
2021/04/12 12:17:17;;;;;;;16.13;6.00;;;;;;;20.85;32.78;95075.91;5066270;28;20795;-79
2021/04/12 12:19:47;;;;;;;15.97;7.20;;;;;;;20.91;33.11;95075.97;5072795;28;20555;-79
2021/04/12 12:22:21;;;;;;;12.63;4.97;;;;;;;20.88;32.07;95068.34;5059728;28;20932;-79
2021/04/12 12:25:00;;;;;;;9.80;5.20;;;;;;;20.87;32.28;95068.53;5052601;28;20442;-79
2021/04/12 12:27:31;;;;;;;8.57;4.40;;;;;;;20.86;32.99;95062.38;5052656;28;20445;-78
2021/04/12 12:30:08;;;;;;;5.47;3.57;;;;;;;20.90;32.84;95063.66;5052801;28;20485;-78
2021/04/12 12:33:02;;;;;;;7.87;5.67;;;;;;;20.90;32.38;95058.31;5069847;28;20502;-78
2021/04/12 12:35:47;;;;;;;7.77;5.00;;;;;;;20.88;33.04;95055.00;5057861;28;20450;-78
2021/04/12 12:38:42;;;;;;;18.13;5.33;;;;;;;20.89;32.82;95051.34;5077042;28;20943;-78
2021/04/12 12:41:14;;;;;;;7.27;4.10;;;;;;;20.96;32.69;95046.06;5076532;28;20950;-78
2021/04/12 12:43:41;;;;;;;11.87;4.27;;;;;;;21.00;32.39;95036.66;5067932;28;20487;-78
2021/04/12 12:46:11;;;;;;;12.47;4.50;;;;;;;20.95;31.80;95033.75;5037667;28;20449;-78
2021/04/12 12:48:48;;;;;;;13.13;5.03;;;;;;;20.96;32.60;95030.88;5056515;28;20792;-79
2021/04/12 12:51:17;;;;;;;8.63;4.37;;;;;;;21.06;32.11;95021.72;5056798;28;20453;-78
2021/04/12 12:53:47;;;;;;;5.50;4.20;;;;;;;21.13;31.86;95018.13;5056429;28;20448;-79
2021/04/12 12:56:23;;;;;;;10.00;3.77;;;;;;;21.26;31.70;95015.56;5056669;28;20449;-78
2021/04/12 12:58:56;;;;;;;7.50;4.50;;;;;;;21.40;31.57;95016.53;5056493;28;20453;-79
2021/04/12 13:01:30;;;;;;;8.23;4.20;;;;;;;21.49;31.49;95015.34;5075414;28;20463;-79
2021/04/12 13:04:11;;;;;;;8.23;4.60;;;;;;;21.52;32.30;95009.63;5076251;28;20522;-80
2021/04/12 13:06:38;;;;;;;9.63;4.10;;;;;;;21.55;31.82;95011.91;5074277;28;20440;-78